Dingwall, Canada
Current Conditions -  °F | °C
As of 2:00 PM on Monday 22 Dec 2014 (Local Time) from CYQY Reporting Station
Overcast Overcast  
Wind Chill: 22°   Ceiling: 1700
Heat Index: 28°   Visibility: 15mi
Dew Point: 23°   Wind: 6mph
Humidity: 80%   Direction: 340°NNW
Pressure: 30.42"   Gusts: NA
Location:  46.9°N, 60.47°W
Report Text: CYQY 221800Z 34005KT 300V360 15SM OVC017 M02/M05 A3042 RMK SC8 SLP306
Loading
Personal Weather Stations






























Interactive Weather Map New forecast layout! Learn more

10-Day Weather Forecast

Advertisements
Track Severe Weather on mobile